KHFJ

Monett Regional Airport

Monett, Missouri, USA
METAR KHFJ 260350Z AUTO 14006KT 10SM CLR 20/19 A2989 RMK AO2
Observed Flight Rules
May-26 @ 03:50 UTC (31 minutes ago) Visual Flight Rules
Wind Visibility Clouds
140° at 6 knots 10 miles
  • Clear skies
Temperatures Readings
Current 20°C / 68°F
Dewpoint 19°C / 66°F
Humidity 94%
Altimeter 29.89" Hg
Pressure 1012 hPa
Elevation 401
METAR KHFJ 260350Z AUTO 14006KT 10SM CLR 20/19 A2989 RMK AO2
Observed Flight Rules
May-26 @ 03:50 UTC
(31 minutes ago)
VFR
Wind Visibility
140° at 6 knots 10 miles
Clouds
  • Clear skies
Temperature Dewpoint
20°C / 68°F 19°C / 66°F
Humidity Altimeter Pressure
94% 29.89" Hg 1012 hPa